GMAA weather

Inezgane Airport
Agadir Province, Morocco

Public forecast

Using degrees Celsius for public forecast. Weather courtesy of forecast.io.

Current aviation weather report (METAR) for Inezgane Airport

Report is more than 6 hours old.

Retrieved 2019/11/25 18:32 UTC (21 days ago):

GMAA 251832Z 26005KT 0800 FG OVC004 15/15 Q1018 M2

Closest aviation forecast (TAF) to Inezgane Airport

Closest forecast is Al Massira Airport, 7.7 nm (14.2 km) ESE. Retrieved 2019/12/16 12:18 UTC (20 minutes ago):

TAF GMAD 161100Z 1612/1718 24014KT 9999 SCT020TCU BKN080 TEMPO 1612/1624 24016G28KT 4000 SHRA SCT030CB